createdAt,value
2023-04-17T00:01:17.385Z,10.10
2023-04-17T00:03:47.246Z,10.10
2023-04-17T00:06:16.396Z,10.10
2023-04-17T00:08:44.681Z,10.10
2023-04-17T00:11:14.185Z,10.10
2023-04-17T00:13:43.993Z,10.10
2023-04-17T00:16:13.770Z,10.10
2023-04-17T00:18:42.270Z,10.10
2023-04-17T00:21:10.344Z,10.10
2023-04-17T00:23:38.547Z,10.10
2023-04-17T00:26:06.806Z,10.00
2023-04-17T00:28:36.273Z,10.00
2023-04-17T00:31:04.640Z,10.00
2023-04-17T00:33:33.452Z,10.00
2023-04-17T00:36:01.765Z,10.00
2023-04-17T00:38:30.015Z,10.10
2023-04-17T00:40:58.254Z,10.00
2023-04-17T00:43:26.425Z,10.10
2023-04-17T00:45:56.189Z,10.00
2023-04-17T00:48:25.073Z,10.10
2023-04-17T00:50:55.355Z,10.00
2023-04-17T00:53:23.874Z,10.10
2023-04-17T00:55:54.163Z,10.10
2023-04-17T00:58:22.898Z,10.00
2023-04-17T01:00:51.282Z,10.00
2023-04-17T01:03:21.787Z,10.10
2023-04-17T01:05:52.775Z,10.00
2023-04-17T01:08:21.394Z,10.00
2023-04-17T01:10:49.611Z,10.00
2023-04-17T01:13:19.879Z,9.90
2023-04-17T01:15:48.026Z,9.90
2023-04-17T01:18:16.595Z,9.90
2023-04-17T01:20:46.075Z,10.00
2023-04-17T01:23:14.745Z,10.00
2023-04-17T01:25:44.371Z,10.00
2023-04-17T01:28:12.569Z,10.00
2023-04-17T01:30:40.811Z,10.00
2023-04-17T01:33:09.390Z,10.00
2023-04-17T01:35:37.564Z,10.00
2023-04-17T01:38:05.779Z,10.00
2023-04-17T01:40:33.877Z,10.00
2023-04-17T01:43:03.405Z,10.00
2023-04-17T01:45:31.620Z,10.00
2023-04-17T01:48:01.116Z,10.00
2023-04-17T01:50:29.282Z,10.00
2023-04-17T01:52:57.474Z,10.00
2023-04-17T01:55:25.611Z,10.00
2023-04-17T01:57:54.169Z,10.00
2023-04-17T02:00:24.044Z,10.00
2023-04-17T02:02:52.325Z,10.00
2023-04-17T02:05:20.983Z,10.00
2023-04-17T02:07:51.414Z,10.00
2023-04-17T02:10:19.690Z,10.00
2023-04-17T02:12:47.876Z,10.00
2023-04-17T02:15:16.077Z,10.00
2023-04-17T02:17:45.959Z,9.90
2023-04-17T02:20:14.414Z,10.00
2023-04-17T02:22:42.536Z,10.00
2023-04-17T02:25:10.810Z,10.00
2023-04-17T02:27:39.022Z,10.00
2023-04-17T02:30:08.504Z,10.00
2023-04-17T02:32:36.764Z,9.90
2023-04-17T02:35:07.410Z,9.90
2023-04-17T02:37:36.163Z,9.90
2023-04-17T02:40:06.661Z,9.90
2023-04-17T02:42:34.749Z,10.00
2023-04-17T02:45:03.192Z,10.00
2023-04-17T02:47:31.441Z,10.00
2023-04-17T02:50:00.687Z,10.00
2023-04-17T02:52:31.090Z,9.90
2023-04-17T02:54:59.478Z,9.90
2023-04-17T02:57:27.929Z,9.90
2023-04-17T02:59:56.094Z,9.90
2023-04-17T03:02:24.556Z,9.90
2023-04-17T03:04:53.492Z,10.00
2023-04-17T03:07:23.663Z,9.90
2023-04-17T03:09:54.076Z,9.90
2023-04-17T03:12:22.259Z,9.90
2023-04-17T03:14:50.672Z,9.80
2023-04-17T03:17:20.459Z,9.80
2023-04-17T03:19:48.673Z,9.80
2023-04-17T03:22:16.816Z,9.80
2023-04-17T03:24:45.017Z,9.90
2023-04-17T03:27:14.611Z,9.90
2023-04-17T03:29:42.723Z,9.90
2023-04-17T03:32:10.968Z,9.90
2023-04-17T03:34:39.169Z,9.80
2023-04-17T03:37:07.218Z,9.90
2023-04-17T03:39:35.469Z,9.90
2023-04-17T03:42:03.725Z,9.90
2023-04-17T03:44:33.332Z,9.90
2023-04-17T03:47:01.390Z,9.90
2023-04-17T03:49:29.823Z,9.90
2023-04-17T03:51:58.555Z,9.90
2023-04-17T03:54:29.314Z,9.90
2023-04-17T03:56:57.651Z,9.90
2023-04-17T03:59:25.814Z,9.80
2023-04-17T04:01:55.923Z,9.80
2023-04-17T04:04:24.280Z,9.80
2023-04-17T04:06:54.572Z,9.80
2023-04-17T04:09:22.685Z,9.80
2023-04-17T04:11:50.753Z,9.80
2023-04-17T04:14:18.945Z,9.80
2023-04-17T04:16:47.476Z,9.80
2023-04-17T04:19:17.153Z,9.80
2023-04-17T04:21:45.448Z,9.80
2023-04-17T04:24:14.498Z,9.80
2023-04-17T04:26:43.283Z,9.80
2023-04-17T04:29:13.822Z,9.80
2023-04-17T04:31:42.592Z,9.80
2023-04-17T04:34:11.130Z,9.80
2023-04-17T04:36:50.385Z,9.80
2023-04-17T04:39:20.796Z,9.80
2023-04-17T04:41:50.397Z,9.90
2023-04-17T04:44:18.765Z,9.80
2023-04-17T04:46:47.132Z,9.80
2023-04-17T04:49:15.515Z,9.90
2023-04-17T04:51:45.013Z,9.90
2023-04-17T04:54:13.437Z,9.90
2023-04-17T04:56:44.981Z,9.90
2023-04-17T04:59:13.283Z,9.90
2023-04-17T05:01:41.914Z,9.90
2023-04-17T05:04:10.185Z,9.90
2023-04-17T05:06:38.594Z,9.90
2023-04-17T05:09:08.101Z,10.00
2023-04-17T05:11:36.313Z,9.90
2023-04-17T05:14:04.414Z,9.90
2023-04-17T05:16:33.245Z,9.90
2023-04-17T05:19:01.334Z,9.90
2023-04-17T05:21:31.078Z,9.90
2023-04-17T05:23:59.515Z,9.90
2023-04-17T05:26:29.004Z,9.90
2023-04-17T05:28:57.140Z,10.00
2023-04-17T05:31:26.333Z,10.00
2023-04-17T05:33:54.615Z,10.00
2023-04-17T05:36:22.913Z,10.00
2023-04-17T05:38:51.106Z,9.90
2023-04-17T05:41:19.190Z,9.90
2023-04-17T05:43:48.660Z,9.90
2023-04-17T05:46:16.816Z,10.00
2023-04-17T05:48:44.932Z,10.00
2023-04-17T05:51:13.192Z,9.90
2023-04-17T05:53:41.305Z,10.00
2023-04-17T05:56:09.457Z,10.00
2023-04-17T05:58:37.537Z,10.00
2023-04-17T06:01:07.263Z,10.00
2023-04-17T06:03:35.558Z,10.00
2023-04-17T06:06:03.899Z,10.00
2023-04-17T06:08:32.018Z,10.00
2023-04-17T06:11:00.203Z,10.00
2023-04-17T06:13:28.288Z,10.00
2023-04-17T06:15:56.476Z,10.00
2023-04-17T06:18:26.031Z,10.00
2023-04-17T06:20:54.225Z,10.00
2023-04-17T06:23:22.645Z,10.00
2023-04-17T06:25:50.797Z,10.00
2023-04-17T06:28:18.958Z,10.00
2023-04-17T06:30:47.070Z,10.00
2023-04-17T06:33:15.233Z,10.00
2023-04-17T06:35:44.718Z,10.10
2023-04-17T06:38:12.852Z,10.10
2023-04-17T06:40:41.596Z,10.00
2023-04-17T06:43:09.714Z,10.00
2023-04-17T06:45:37.996Z,10.00
2023-04-17T06:48:06.616Z,10.00
2023-04-17T06:50:34.748Z,10.00
2023-04-17T06:53:04.292Z,10.10
2023-04-17T06:55:32.499Z,10.10
2023-04-17T06:58:00.654Z,10.10
2023-04-17T07:00:29.082Z,10.10
2023-04-17T07:02:57.351Z,10.10
2023-04-17T07:05:25.712Z,10.00
2023-04-17T07:07:53.846Z,10.10
2023-04-17T07:10:23.383Z,10.10
2023-04-17T07:12:51.730Z,10.10
2023-04-17T07:15:20.091Z,10.10
2023-04-17T07:17:48.214Z,10.10
2023-04-17T07:20:16.611Z,10.20
2023-04-17T07:22:44.801Z,10.20
2023-04-17T07:25:13.046Z,10.20
2023-04-17T07:27:42.575Z,10.20
2023-04-17T07:30:11.477Z,10.20
2023-04-17T07:32:39.694Z,10.30
2023-04-17T07:35:08.645Z,10.20
2023-04-17T07:37:37.080Z,10.20
2023-04-17T07:40:09.549Z,10.10
2023-04-17T07:42:37.906Z,10.10
2023-04-17T07:45:08.683Z,10.10
2023-04-17T07:47:36.873Z,10.10
2023-04-17T07:50:05.676Z,10.10
2023-04-17T07:52:33.752Z,10.10
2023-04-17T07:55:01.919Z,10.10
2023-04-17T07:57:30.038Z,10.10
2023-04-17T07:59:58.488Z,10.10
2023-04-17T08:02:29.495Z,10.10
2023-04-17T08:04:57.970Z,10.10
2023-04-17T08:07:27.078Z,10.20
2023-04-17T08:09:55.573Z,10.20
2023-04-17T08:12:23.788Z,10.20
2023-04-17T08:14:52.011Z,10.20
2023-04-17T08:17:23.369Z,10.30
2023-04-17T08:19:54.417Z,10.40
2023-04-17T08:22:24.220Z,10.40
2023-04-17T08:24:54.799Z,10.50
2023-04-17T08:27:23.114Z,10.50
2023-04-17T08:29:51.689Z,10.50
2023-04-17T08:32:19.837Z,10.50
2023-04-17T08:34:48.100Z,10.50
2023-04-17T08:37:17.725Z,10.50
2023-04-17T08:39:46.008Z,10.50
2023-04-17T08:42:18.474Z,10.50
2023-04-17T08:44:47.333Z,10.60
2023-04-17T08:47:15.961Z,10.60
2023-04-17T08:49:46.018Z,10.60
2023-04-17T08:52:14.545Z,10.50
2023-04-17T08:54:44.050Z,10.60
2023-04-17T08:57:12.255Z,10.60
2023-04-17T08:59:40.440Z,10.60
2023-04-17T09:02:10.343Z,10.60
2023-04-17T09:04:42.704Z,10.60
2023-04-17T09:07:12.287Z,10.60
2023-04-17T09:09:52.205Z,10.60
2023-04-17T09:12:21.513Z,10.60
2023-04-17T09:14:49.810Z,10.60
2023-04-17T09:17:20.201Z,10.60
2023-04-17T09:20:04.107Z,10.50
2023-04-17T09:22:32.291Z,10.50
2023-04-17T09:25:02.012Z,10.50
2023-04-17T09:27:30.783Z,10.50
2023-04-17T09:30:01.344Z,10.60
2023-04-17T09:32:30.744Z,10.50
2023-04-17T09:35:00.079Z,10.60
2023-04-17T09:37:47.228Z,10.60
2023-04-17T09:40:17.630Z,10.60
2023-04-17T09:42:56.949Z,10.60
2023-04-17T09:45:26.104Z,10.70
2023-04-17T09:47:56.747Z,10.80
2023-04-17T09:50:25.880Z,10.90
2023-04-17T09:52:55.952Z,11.00
2023-04-17T09:55:26.805Z,11.00
2023-04-17T09:57:56.529Z,11.20
2023-04-17T10:00:27.146Z,11.30
2023-04-17T10:02:57.441Z,11.30
2023-04-17T10:05:27.150Z,11.30
2023-04-17T10:07:55.743Z,11.30
2023-04-17T10:10:27.161Z,11.30
2023-04-17T10:12:58.269Z,11.20
2023-04-17T10:15:27.433Z,11.10
2023-04-17T10:17:57.722Z,11.10
2023-04-17T10:20:39.390Z,11.00
2023-04-17T10:23:31.379Z,11.00
2023-04-17T10:26:42.088Z,11.00
2023-04-17T10:29:12.810Z,11.10
2023-04-17T10:32:28.650Z,11.20
2023-04-17T10:34:58.348Z,11.40
2023-04-17T10:37:59.835Z,11.60
2023-04-17T10:40:31.611Z,11.70
2023-04-17T10:43:12.198Z,11.70
2023-04-17T10:46:09.770Z,11.70
2023-04-17T10:48:41.705Z,11.60
2023-04-17T10:51:43.799Z,11.60
2023-04-17T10:54:15.330Z,11.50
2023-04-17T10:56:46.182Z,11.40
2023-04-17T10:59:15.900Z,11.40
2023-04-17T11:02:01.484Z,11.40
2023-04-17T11:04:31.813Z,11.30
2023-04-17T11:07:00.137Z,11.40
2023-04-17T11:09:30.319Z,11.40
2023-04-17T11:12:01.895Z,11.40
2023-04-17T11:14:30.861Z,11.40
2023-04-17T11:17:00.590Z,11.50
2023-04-17T11:19:28.785Z,11.50
2023-04-17T11:21:58.832Z,11.50
2023-04-17T11:24:29.673Z,11.50
2023-04-17T11:27:00.213Z,11.60
2023-04-17T11:29:28.941Z,11.70
2023-04-17T11:31:58.796Z,11.80
2023-04-17T11:34:28.537Z,11.90
2023-04-17T11:36:58.255Z,12.10
2023-04-17T11:39:29.021Z,12.40
2023-04-17T11:41:58.003Z,12.70
2023-04-17T11:44:26.943Z,12.90
2023-04-17T11:46:56.351Z,12.90
2023-04-17T11:49:29.547Z,13.00
2023-04-17T11:52:00.482Z,13.10
2023-04-17T11:54:29.263Z,13.20
2023-04-17T11:57:05.091Z,13.10
2023-04-17T11:59:34.126Z,13.20
2023-04-17T12:02:03.529Z,13.20
2023-04-17T12:04:35.011Z,13.30
2023-04-17T12:07:04.101Z,13.40
2023-04-17T12:09:32.680Z,13.40
2023-04-17T12:12:02.756Z,13.40
2023-04-17T12:14:31.384Z,13.50
2023-04-17T12:16:59.705Z,13.40
2023-04-17T12:19:29.448Z,13.50
2023-04-17T12:21:59.842Z,13.50
2023-04-17T12:24:27.996Z,13.40
2023-04-17T12:26:56.422Z,13.40
2023-04-17T12:29:40.563Z,13.30
2023-04-17T12:32:11.819Z,13.20
2023-04-17T12:34:40.532Z,13.10
2023-04-17T12:37:10.423Z,12.90
2023-04-17T12:39:38.721Z,12.70
2023-04-17T12:42:06.892Z,12.70
2023-04-17T12:44:35.016Z,12.60
2023-04-17T12:47:03.387Z,12.50
2023-04-17T12:49:31.580Z,12.40
2023-04-17T12:52:02.388Z,12.40
2023-04-17T12:54:33.150Z,12.40
2023-04-17T12:57:01.554Z,12.30
2023-04-17T12:59:29.640Z,12.30
2023-04-17T13:01:58.001Z,12.30
2023-04-17T13:04:26.306Z,12.30
2023-04-17T13:06:54.838Z,12.30
2023-04-17T13:09:23.297Z,12.30
2023-04-17T13:11:52.896Z,12.40
2023-04-17T13:14:21.588Z,12.40
2023-04-17T13:16:50.824Z,12.40
2023-04-17T13:19:19.897Z,12.40
2023-04-17T13:21:48.007Z,12.50
2023-04-17T13:24:16.290Z,12.60
2023-04-17T13:26:44.812Z,12.70
2023-04-17T13:29:17.058Z,12.70
2023-04-17T13:31:46.777Z,12.80
2023-04-17T13:34:15.242Z,12.80
2023-04-17T13:36:44.976Z,12.90
2023-04-17T13:39:13.802Z,12.80
2023-04-17T13:41:42.541Z,12.80
2023-04-17T13:44:11.514Z,12.80
2023-04-17T13:46:41.902Z,12.70
2023-04-17T13:49:34.768Z,12.60
2023-04-17T13:52:08.476Z,12.50
2023-04-17T13:54:36.693Z,12.50
2023-04-17T13:57:11.458Z,12.30
2023-04-17T13:59:39.902Z,12.30
2023-04-17T14:02:10.280Z,12.20
2023-04-17T14:04:42.657Z,12.20
2023-04-17T14:07:19.108Z,12.10
2023-04-17T14:09:54.666Z,12.10
2023-04-17T14:12:49.849Z,12.10
2023-04-17T14:15:19.729Z,12.10
2023-04-17T14:17:49.479Z,12.10
2023-04-17T14:20:19.896Z,12.10
2023-04-17T14:22:48.285Z,12.20
2023-04-17T14:25:16.656Z,12.20
2023-04-17T14:27:44.889Z,12.30
2023-04-17T14:30:13.351Z,12.30
2023-04-17T14:32:41.589Z,12.40
2023-04-17T14:35:12.076Z,12.40
2023-04-17T14:37:40.303Z,12.40
2023-04-17T14:40:09.596Z,12.50
2023-04-17T14:42:47.380Z,12.50
2023-04-17T14:45:22.001Z,12.50
2023-04-17T14:47:50.300Z,12.50
2023-04-17T14:50:20.103Z,12.60
2023-04-17T14:52:48.311Z,12.60
2023-04-17T14:55:16.716Z,12.60
2023-04-17T14:57:44.993Z,12.60
2023-04-17T15:00:14.468Z,12.60
2023-04-17T15:02:43.040Z,12.60
2023-04-17T15:05:11.791Z,12.60
2023-04-17T15:07:41.563Z,12.60
2023-04-17T15:10:10.977Z,12.60
2023-04-17T15:12:39.499Z,12.60
2023-04-17T15:15:09.553Z,12.60
2023-04-17T15:17:38.508Z,12.60
2023-04-17T15:20:07.995Z,12.60
2023-04-17T15:22:36.506Z,12.60
2023-04-17T15:25:07.281Z,12.60
2023-04-17T15:27:35.753Z,12.60
2023-04-17T15:30:06.736Z,12.50
2023-04-17T15:32:35.135Z,12.60
2023-04-17T15:35:03.712Z,12.50
2023-04-17T15:37:32.353Z,12.50
2023-04-17T15:40:00.826Z,12.60
2023-04-17T15:42:30.617Z,12.60
2023-04-17T15:44:59.103Z,12.60
2023-04-17T15:47:27.588Z,12.60
2023-04-17T15:49:56.004Z,12.60
2023-04-17T15:52:24.348Z,12.60
2023-04-17T15:54:52.519Z,12.60
2023-04-17T15:57:20.643Z,12.70
2023-04-17T15:59:50.269Z,12.60
2023-04-17T16:02:18.580Z,12.60
2023-04-17T16:04:46.966Z,12.60
2023-04-17T16:07:16.555Z,12.60
2023-04-17T16:09:46.663Z,12.60
2023-04-17T16:12:14.935Z,12.50
2023-04-17T16:14:43.196Z,12.40
2023-04-17T16:17:12.597Z,12.40
2023-04-17T16:19:40.690Z,12.40
2023-04-17T16:22:08.835Z,12.30
2023-04-17T16:24:36.967Z,12.40
2023-04-17T16:27:05.223Z,12.30
2023-04-17T16:29:33.363Z,12.30
2023-04-17T16:32:01.518Z,12.20
2023-04-17T16:34:30.994Z,12.20
2023-04-17T16:36:59.156Z,12.20
2023-04-17T16:39:27.501Z,12.20
2023-04-17T16:41:56.295Z,12.20
2023-04-17T16:44:25.943Z,12.20
2023-04-17T16:47:10.085Z,12.20
2023-04-17T16:49:42.743Z,12.20
2023-04-17T16:52:11.278Z,12.20
2023-04-17T16:54:39.494Z,12.20
2023-04-17T16:57:07.723Z,12.10
2023-04-17T16:59:35.986Z,12.10
2023-04-17T17:02:05.397Z,12.20
2023-04-17T17:04:33.606Z,12.10
2023-04-17T17:07:03.132Z,12.10
2023-04-17T17:09:31.280Z,12.10
2023-04-17T17:11:59.436Z,12.00
2023-04-17T17:14:27.626Z,12.00
2023-04-17T17:16:55.835Z,11.90
2023-04-17T17:19:24.091Z,11.90
2023-04-17T17:21:52.429Z,11.90
2023-04-17T17:24:22.044Z,11.90
2023-04-17T17:26:50.636Z,11.90
2023-04-17T17:29:19.147Z,11.90
2023-04-17T17:31:47.474Z,11.80
2023-04-17T17:34:26.536Z,11.80
2023-04-17T17:36:55.601Z,11.80
2023-04-17T17:39:25.254Z,11.80
2023-04-17T17:41:55.834Z,11.80
2023-04-17T17:44:24.222Z,11.80
2023-04-17T17:46:52.763Z,11.70
2023-04-17T17:49:20.814Z,11.70
2023-04-17T17:51:48.919Z,11.70
2023-04-17T17:54:17.244Z,11.60
2023-04-17T17:56:47.070Z,11.60
2023-04-17T17:59:15.431Z,11.50
2023-04-17T18:01:44.030Z,11.50
2023-04-17T18:04:12.525Z,11.60
2023-04-17T18:06:41.042Z,11.50
2023-04-17T18:09:09.206Z,11.50
2023-04-17T18:11:38.376Z,11.50
2023-04-17T18:14:07.982Z,11.40
2023-04-17T18:16:37.243Z,11.40
2023-04-17T18:19:05.378Z,11.40
2023-04-17T18:21:33.846Z,11.40
2023-04-17T18:24:02.750Z,11.40
2023-04-17T18:26:30.884Z,11.30
2023-04-17T18:28:59.005Z,11.40
2023-04-17T18:31:28.553Z,11.30
2023-04-17T18:33:57.018Z,11.30
2023-04-17T18:36:26.161Z,11.30
2023-04-17T18:38:54.297Z,11.20
2023-04-17T18:41:23.039Z,11.20
2023-04-17T18:43:51.221Z,11.20
2023-04-17T18:46:19.535Z,11.20
2023-04-17T18:48:49.145Z,11.20
2023-04-17T18:51:17.591Z,11.20
2023-04-17T18:53:45.802Z,11.10
2023-04-17T18:56:15.115Z,11.20
2023-04-17T18:58:43.660Z,11.10
2023-04-17T19:01:11.942Z,11.10
2023-04-17T19:03:40.474Z,11.10
2023-04-17T19:06:10.032Z,11.10
2023-04-17T19:08:39.527Z,11.10
2023-04-17T19:11:08.003Z,11.10
2023-04-17T19:13:36.149Z,11.10
2023-04-17T19:16:04.334Z,11.10
2023-04-17T19:18:32.551Z,11.10
2023-04-17T19:21:02.084Z,11.10
2023-04-17T19:23:31.625Z,11.10
2023-04-17T19:25:59.810Z,11.10
2023-04-17T19:28:28.490Z,11.10
2023-04-17T19:30:57.946Z,11.10
2023-04-17T19:33:26.140Z,11.00
2023-04-17T19:35:54.240Z,11.00
2023-04-17T19:38:22.476Z,11.00
2023-04-17T19:41:14.584Z,11.00
2023-04-17T19:43:42.958Z,10.90
2023-04-17T19:46:11.273Z,10.90
2023-04-17T19:48:39.503Z,10.90
2023-04-17T19:51:08.051Z,10.90
2023-04-17T19:53:37.311Z,10.80
2023-04-17T19:56:08.564Z,10.80
2023-04-17T19:58:37.384Z,10.80
2023-04-17T20:01:05.984Z,10.80
2023-04-17T20:03:35.694Z,10.70
2023-04-17T20:06:04.415Z,10.70
2023-04-17T20:08:32.669Z,10.70
2023-04-17T20:11:00.851Z,10.60
2023-04-17T20:13:30.431Z,10.60
2023-04-17T20:15:58.662Z,10.60
2023-04-17T20:18:27.260Z,10.60
2023-04-17T20:20:55.530Z,10.60
2023-04-17T20:23:23.784Z,10.50
2023-04-17T20:25:51.901Z,10.50
2023-04-17T20:28:20.184Z,10.50
2023-04-17T20:30:50.689Z,10.40
2023-04-17T20:33:18.981Z,10.40
2023-04-17T20:35:47.632Z,10.40
2023-04-17T20:38:15.760Z,10.30
2023-04-17T20:40:44.069Z,10.40
2023-04-17T20:43:13.171Z,10.30
2023-04-17T20:45:41.485Z,10.40
2023-04-17T20:48:11.068Z,10.30
2023-04-17T20:50:39.206Z,10.30
2023-04-17T20:53:07.364Z,10.30
2023-04-17T20:55:37.113Z,10.30
2023-04-17T20:58:05.363Z,10.30
2023-04-17T21:00:34.724Z,10.30
2023-04-17T21:03:03.064Z,10.20
2023-04-17T21:05:32.911Z,10.20
2023-04-17T21:08:00.932Z,10.20
2023-04-17T21:10:29.162Z,10.20
2023-04-17T21:12:57.369Z,10.20
2023-04-17T21:15:25.681Z,10.10
2023-04-17T21:17:53.801Z,10.10
2023-04-17T21:20:22.007Z,10.10
2023-04-17T21:22:51.595Z,10.10
2023-04-17T21:25:19.811Z,10.10
2023-04-17T21:27:47.893Z,10.00
2023-04-17T21:30:16.281Z,10.00
2023-04-17T21:32:44.491Z,9.90
2023-04-17T21:35:12.770Z,9.90
2023-04-17T21:37:40.923Z,9.90
2023-04-17T21:40:11.786Z,9.90
2023-04-17T21:42:39.865Z,9.90
2023-04-17T21:45:09.118Z,9.90
2023-04-17T21:47:37.293Z,9.90
2023-04-17T21:50:05.976Z,9.80
2023-04-17T21:52:34.127Z,9.80
2023-04-17T21:55:05.615Z,9.80
2023-04-17T21:57:35.235Z,9.70
2023-04-17T22:00:04.469Z,9.80
2023-04-17T22:02:32.683Z,9.80
2023-04-17T22:05:00.859Z,9.80
2023-04-17T22:07:29.011Z,9.80
2023-04-17T22:09:59.050Z,9.80
2023-04-17T22:12:27.088Z,9.80
2023-04-17T22:14:56.556Z,9.80
2023-04-17T22:17:24.675Z,9.80
2023-04-17T22:19:52.821Z,9.80
2023-04-17T22:22:20.833Z,9.80
2023-04-17T22:24:49.019Z,9.70
2023-04-17T22:27:17.096Z,9.70
2023-04-17T22:29:45.218Z,9.60
2023-04-17T22:32:14.691Z,9.70
2023-04-17T22:34:42.726Z,9.60
2023-04-17T22:37:11.107Z,9.70
2023-04-17T22:39:39.240Z,9.60
2023-04-17T22:42:07.519Z,9.60
2023-04-17T22:44:35.644Z,9.60
2023-04-17T22:47:03.714Z,9.60
2023-04-17T22:49:38.129Z,9.50
2023-04-17T22:52:06.734Z,9.50
2023-04-17T22:54:34.912Z,9.40
2023-04-17T22:57:03.343Z,9.40
2023-04-17T22:59:31.604Z,9.40
2023-04-17T23:01:59.946Z,9.40
2023-04-17T23:04:28.154Z,9.40
2023-04-17T23:06:58.144Z,9.30
2023-04-17T23:09:27.511Z,9.40
2023-04-17T23:11:56.079Z,9.40
2023-04-17T23:14:24.293Z,9.40
2023-04-17T23:16:52.909Z,9.40
2023-04-17T23:19:22.499Z,9.40
2023-04-17T23:21:50.753Z,9.40
2023-04-17T23:24:20.250Z,9.40
2023-04-17T23:26:48.842Z,9.40
2023-04-17T23:29:16.964Z,9.40
2023-04-17T23:31:45.604Z,9.50
2023-04-17T23:34:14.021Z,9.40
2023-04-17T23:36:42.314Z,9.50
2023-04-17T23:39:10.587Z,9.40
2023-04-17T23:41:42.264Z,9.50
2023-04-17T23:44:10.748Z,9.50
2023-04-17T23:46:38.963Z,9.50
2023-04-17T23:49:07.088Z,9.50
2023-04-17T23:51:35.152Z,9.50
2023-04-17T23:54:03.243Z,9.50
2023-04-17T23:56:31.356Z,9.50
2023-04-17T23:59:00.845Z,9.50
